createdAt,value
2018-05-06T00:07:08.265Z,14.34
2018-05-06T00:16:55.281Z,14.24
2018-05-06T00:26:54.087Z,13.75
2018-05-06T00:36:49.418Z,13.17
2018-05-06T00:46:46.324Z,12.77
2018-05-06T00:56:40.465Z,12.78
2018-05-06T01:06:38.006Z,12.78
2018-05-06T01:16:26.836Z,12.48
2018-05-06T01:26:10.065Z,12.48
2018-05-06T01:35:55.249Z,12.19
2018-05-06T01:45:43.786Z,11.90
2018-05-06T01:55:31.587Z,11.60
2018-05-06T02:05:20.465Z,11.60
2018-05-06T02:15:02.994Z,11.41
2018-05-06T02:24:52.613Z,11.31
2018-05-06T02:34:38.527Z,11.01
2018-05-06T02:44:23.296Z,11.11
2018-05-06T02:54:09.689Z,10.92
2018-05-06T03:03:52.167Z,10.92
2018-05-06T03:13:43.558Z,10.72
2018-05-06T03:23:31.681Z,10.62
2018-05-06T03:33:14.718Z,10.53
2018-05-06T03:43:01.597Z,10.53
2018-05-06T03:52:46.887Z,10.43
2018-05-06T04:02:35.794Z,10.53
2018-05-06T04:12:25.122Z,10.62
2018-05-06T04:22:09.906Z,10.62
2018-05-06T04:32:04.629Z,10.62
2018-05-06T04:42:00.638Z,10.62
2018-05-06T04:51:58.731Z,10.82
2018-05-06T05:01:55.761Z,10.92
2018-05-06T05:11:46.981Z,11.01
2018-05-06T05:21:45.776Z,11.21
2018-05-06T05:31:43.631Z,11.31
2018-05-06T05:41:37.468Z,11.60
2018-05-06T05:51:36.026Z,11.89
2018-05-06T06:01:34.010Z,12.29
2018-05-06T06:11:27.367Z,13.07
2018-05-06T06:21:25.209Z,13.36
2018-05-06T06:31:01.170Z,13.85
2018-05-06T06:40:57.434Z,14.05
2018-05-06T06:50:50.978Z,14.44
2018-05-06T07:00:44.662Z,14.83
2018-05-06T07:10:39.435Z,15.12
2018-05-06T07:20:35.373Z,15.51
2018-05-06T07:30:25.935Z,15.71
2018-05-06T07:40:19.507Z,16.20
2018-05-06T07:50:11.429Z,16.39
2018-05-06T08:00:06.211Z,16.69
2018-05-06T08:10:01.966Z,17.28
2018-05-06T08:20:00.088Z,17.37
2018-05-06T08:29:52.337Z,17.47
2018-05-06T08:39:48.318Z,17.47
2018-05-06T08:49:43.747Z,17.57
2018-05-06T08:59:40.667Z,17.86
2018-05-06T09:09:36.672Z,18.25
2018-05-06T09:19:33.946Z,18.74
2018-05-06T09:29:31.261Z,19.72
2018-05-06T09:39:30.970Z,20.31
2018-05-06T09:49:31.086Z,20.70
2018-05-06T09:59:24.450Z,20.31
2018-05-06T10:09:18.268Z,20.70
2018-05-06T10:19:16.371Z,21.09
2018-05-06T10:29:14.500Z,21.28
2018-05-06T10:39:13.649Z,22.16
2018-05-06T10:49:08.555Z,22.36
2018-05-06T10:58:43.619Z,22.46
2018-05-06T11:08:25.520Z,23.24
2018-05-06T11:18:00.391Z,23.63
2018-05-06T11:27:29.694Z,23.92
2018-05-06T11:37:07.547Z,25.88
2018-05-06T11:46:45.779Z,27.54
2018-05-06T11:56:24.135Z,27.44
2018-05-06T12:06:01.927Z,26.56
2018-05-06T12:15:43.485Z,27.15
2018-05-06T12:25:13.342Z,25.78
2018-05-06T12:34:52.565Z,26.07
2018-05-06T12:44:31.817Z,26.96
2018-05-06T12:54:06.803Z,27.15
2018-05-06T13:03:32.150Z,26.17
2018-05-06T13:13:13.106Z,28.71
2018-05-06T13:22:48.538Z,27.83
2018-05-06T13:32:30.651Z,29.20
2018-05-06T13:41:58.526Z,28.72
2018-05-06T13:51:38.460Z,28.72
2018-05-06T14:01:17.670Z,29.50
2018-05-06T14:10:59.664Z,27.64
2018-05-06T14:20:32.855Z,29.40
2018-05-06T14:30:04.026Z,27.54
2018-05-06T14:39:41.971Z,28.33
2018-05-06T14:49:19.175Z,27.05
2018-05-06T14:58:56.716Z,27.54
2018-05-06T15:08:35.883Z,29.59
2018-05-06T15:18:16.127Z,28.03
2018-05-06T15:27:49.788Z,28.81
2018-05-06T15:37:16.349Z,25.39
2018-05-06T15:46:50.783Z,24.61
2018-05-06T15:56:22.478Z,22.65
2018-05-06T16:05:56.314Z,21.48
2018-05-06T16:15:31.690Z,21.38
2018-05-06T16:25:11.743Z,20.99
2018-05-06T16:34:40.328Z,20.50
2018-05-06T16:44:34.268Z,19.92
2018-05-06T16:54:11.033Z,19.33
2018-05-06T17:04:06.626Z,18.84
2018-05-06T17:14:02.986Z,18.35
2018-05-06T17:23:57.893Z,17.86
2018-05-06T17:33:54.762Z,17.37
2018-05-06T17:43:51.544Z,16.98
2018-05-06T17:53:46.648Z,16.79
2018-05-06T18:03:45.244Z,16.49
2018-05-06T18:13:37.704Z,15.91
2018-05-06T18:23:28.518Z,15.52
2018-05-06T18:33:18.715Z,15.12
2018-05-06T18:43:14.802Z,14.63
2018-05-06T18:53:10.016Z,14.44
2018-05-06T19:03:02.422Z,14.14
2018-05-06T19:12:51.075Z,13.95
2018-05-06T19:22:43.282Z,13.66
2018-05-06T19:32:38.974Z,13.17
2018-05-06T19:42:32.265Z,13.07
2018-05-06T19:52:26.323Z,12.87
2018-05-06T20:02:21.895Z,12.68
2018-05-06T20:12:16.273Z,12.48
2018-05-06T20:22:05.876Z,12.29
2018-05-06T20:31:56.600Z,12.19
2018-05-06T20:41:45.114Z,12.19
2018-05-06T20:51:35.835Z,11.99
2018-05-06T21:01:26.417Z,12.09
2018-05-06T21:11:15.660Z,11.89
2018-05-06T21:21:03.155Z,11.70
2018-05-06T21:30:52.338Z,11.60
2018-05-06T21:40:43.190Z,11.60
2018-05-06T21:50:28.817Z,11.60
2018-05-06T22:00:20.234Z,11.50
2018-05-06T22:10:09.031Z,11.31
2018-05-06T22:19:56.252Z,11.11
2018-05-06T22:29:51.737Z,11.11
2018-05-06T22:39:43.131Z,10.92
2018-05-06T22:49:30.529Z,10.92
2018-05-06T22:59:20.603Z,10.62
2018-05-06T23:09:05.401Z,10.62
2018-05-06T23:18:52.586Z,10.13
2018-05-06T23:28:39.975Z,10.14
2018-05-06T23:38:28.497Z,10.04
2018-05-06T23:48:17.007Z,9.65
2018-05-06T23:58:06.864Z,9.74
